sensor_id;sensor_type;location;lat;lon;timestamp;temperature;humidity
16253;DHT22;8234;41.480;2.306;2022-12-07T00:08:32;9.30;99.90
16253;DHT22;8234;41.480;2.306;2022-12-07T00:18:38;9.10;99.90
16253;DHT22;8234;41.480;2.306;2022-12-07T00:28:45;8.90;99.90
16253;DHT22;8234;41.480;2.306;2022-12-07T00:38:50;8.80;99.90
16253;DHT22;8234;41.480;2.306;2022-12-07T00:48:54;8.70;99.90
16253;DHT22;8234;41.480;2.306;2022-12-07T00:59:01;8.80;99.90
16253;DHT22;8234;41.480;2.306;2022-12-07T01:09:05;8.80;99.90
16253;DHT22;8234;41.480;2.306;2022-12-07T01:19:10;8.60;99.90
16253;DHT22;8234;41.480;2.306;2022-12-07T01:29:14;8.60;99.90
16253;DHT22;8234;41.480;2.306;2022-12-07T01:39:19;8.60;99.90
16253;DHT22;8234;41.480;2.306;2022-12-07T01:49:28;8.60;99.90
16253;DHT22;8234;41.480;2.306;2022-12-07T01:59:33;8.60;99.90
16253;DHT22;8234;41.480;2.306;2022-12-07T02:09:38;8.20;99.90
16253;DHT22;8234;41.480;2.306;2022-12-07T02:20:08;8.30;99.90
16253;DHT22;8234;41.480;2.306;2022-12-07T02:30:17;8.60;99.90
16253;DHT22;8234;41.480;2.306;2022-12-07T02:40:25;8.70;99.90
16253;DHT22;8234;41.480;2.306;2022-12-07T02:50:32;8.70;99.90
16253;DHT22;8234;41.480;2.306;2022-12-07T03:00:44;8.60;99.90
16253;DHT22;8234;41.480;2.306;2022-12-07T03:10:56;8.80;99.90
16253;DHT22;8234;41.480;2.306;2022-12-07T03:21:06;8.60;99.90
16253;DHT22;8234;41.480;2.306;2022-12-07T03:31:17;8.50;99.90
16253;DHT22;8234;41.480;2.306;2022-12-07T03:41:24;8.70;99.90
16253;DHT22;8234;41.480;2.306;2022-12-07T03:51:36;8.70;99.90
16253;DHT22;8234;41.480;2.306;2022-12-07T04:01:42;8.80;99.90
16253;DHT22;8234;41.480;2.306;2022-12-07T04:11:48;8.90;99.90
16253;DHT22;8234;41.480;2.306;2022-12-07T04:21:52;8.80;99.90
16253;DHT22;8234;41.480;2.306;2022-12-07T04:31:57;9.20;99.90
16253;DHT22;8234;41.480;2.306;2022-12-07T04:42:01;9.40;99.90
16253;DHT22;8234;41.480;2.306;2022-12-07T04:52:06;9.50;99.90
16253;DHT22;8234;41.480;2.306;2022-12-07T05:02:10;9.60;99.90
16253;DHT22;8234;41.480;2.306;2022-12-07T05:12:15;9.60;99.90
16253;DHT22;8234;41.480;2.306;2022-12-07T05:22:19;9.60;99.90
16253;DHT22;8234;41.480;2.306;2022-12-07T05:32:25;9.50;99.90
16253;DHT22;8234;41.480;2.306;2022-12-07T05:42:28;9.40;99.90
16253;DHT22;8234;41.480;2.306;2022-12-07T05:52:34;9.40;99.90
16253;DHT22;8234;41.480;2.306;2022-12-07T15:52:52;15.10;99.90
16253;DHT22;8234;41.480;2.306;2022-12-07T16:02:56;14.80;99.90
16253;DHT22;8234;41.480;2.306;2022-12-07T16:13:01;14.60;99.90
16253;DHT22;8234;41.480;2.306;2022-12-07T16:23:05;14.70;99.90
16253;DHT22;8234;41.480;2.306;2022-12-07T16:33:10;14.60;99.90
16253;DHT22;8234;41.480;2.306;2022-12-07T16:43:14;14.50;99.90
16253;DHT22;8234;41.480;2.306;2022-12-07T16:53:21;14.60;99.90
16253;DHT22;8234;41.480;2.306;2022-12-07T17:03:25;14.60;99.90
16253;DHT22;8234;41.480;2.306;2022-12-07T17:13:30;14.70;99.90
16253;DHT22;8234;41.480;2.306;2022-12-07T17:23:51;14.70;99.90
16253;DHT22;8234;41.480;2.306;2022-12-07T17:33:56;14.40;99.90
16253;DHT22;8234;41.480;2.306;2022-12-07T17:44:01;14.40;99.90
16253;DHT22;8234;41.480;2.306;2022-12-07T17:54:09;13.80;99.90
16253;DHT22;8234;41.480;2.306;2022-12-07T18:04:13;13.70;99.90
16253;DHT22;8234;41.480;2.306;2022-12-07T18:14:18;13.50;99.90
16253;DHT22;8234;41.480;2.306;2022-12-07T18:24:22;13.50;99.90
16253;DHT22;8234;41.480;2.306;2022-12-07T18:34:27;13.40;99.90
16253;DHT22;8234;41.480;2.306;2022-12-07T18:44:31;13.40;99.90
16253;DHT22;8234;41.480;2.306;2022-12-07T18:54:37;13.30;99.90
16253;DHT22;8234;41.480;2.306;2022-12-07T19:04:41;13.10;99.90
16253;DHT22;8234;41.480;2.306;2022-12-07T19:14:46;13.00;99.90
16253;DHT22;8234;41.480;2.306;2022-12-07T19:24:51;13.00;99.90
16253;DHT22;8234;41.480;2.306;2022-12-07T19:34:56;13.00;99.90
16253;DHT22;8234;41.480;2.306;2022-12-07T19:45:00;12.90;99.90
16253;DHT22;8234;41.480;2.306;2022-12-07T19:55:06;13.00;99.90
16253;DHT22;8234;41.480;2.306;2022-12-07T20:05:11;12.90;99.90
16253;DHT22;8234;41.480;2.306;2022-12-07T20:15:16;12.90;99.90
16253;DHT22;8234;41.480;2.306;2022-12-07T20:25:20;12.90;99.90
16253;DHT22;8234;41.480;2.306;2022-12-07T20:35:25;13.00;99.90
16253;DHT22;8234;41.480;2.306;2022-12-07T20:45:29;12.80;99.90
16253;DHT22;8234;41.480;2.306;2022-12-07T20:55:35;12.70;99.90
16253;DHT22;8234;41.480;2.306;2022-12-07T21:15:55;12.60;99.90
16253;DHT22;8234;41.480;2.306;2022-12-07T21:26:07;12.50;99.90
16253;DHT22;8234;41.480;2.306;2022-12-07T21:36:14;12.40;99.90
16253;DHT22;8234;41.480;2.306;2022-12-07T21:46:20;12.40;99.90
16253;DHT22;8234;41.480;2.306;2022-12-07T21:56:35;12.30;99.90
16253;DHT22;8234;41.480;2.306;2022-12-07T22:06:39;12.30;99.90
16253;DHT22;8234;41.480;2.306;2022-12-07T22:16:44;12.40;99.90
16253;DHT22;8234;41.480;2.306;2022-12-07T22:26:48;12.10;99.90
16253;DHT22;8234;41.480;2.306;2022-12-07T22:36:53;12.20;99.90
16253;DHT22;8234;41.480;2.306;2022-12-07T22:46:57;12.30;99.90
16253;DHT22;8234;41.480;2.306;2022-12-07T22:57:02;12.20;99.90
16253;DHT22;8234;41.480;2.306;2022-12-07T23:07:07;12.10;99.90
16253;DHT22;8234;41.480;2.306;2022-12-07T23:17:12;12.10;99.90
16253;DHT22;8234;41.480;2.306;2022-12-07T23:27:16;12.10;99.90
16253;DHT22;8234;41.480;2.306;2022-12-07T23:37:21;11.90;99.90
16253;DHT22;8234;41.480;2.306;2022-12-07T23:47:25;11.90;99.90
16253;DHT22;8234;41.480;2.306;2022-12-07T23:57:30;12.10;99.90
